createdAt,value
2023-07-15T00:01:27.928Z,96190.44
2023-07-15T00:03:54.630Z,96191.59
2023-07-15T00:06:21.291Z,96193.53
2023-07-15T00:08:47.898Z,96182.38
2023-07-15T00:11:14.515Z,96186.22
2023-07-15T00:13:41.116Z,96184.34
2023-07-15T00:16:07.757Z,96190.16
2023-07-15T00:18:34.385Z,96185.16
2023-07-15T00:21:00.993Z,96190.22
2023-07-15T00:23:27.607Z,96184.81
2023-07-15T00:25:54.264Z,96184.47
2023-07-15T00:28:20.983Z,96178.31
2023-07-15T00:30:47.611Z,96184.13
2023-07-15T00:33:14.237Z,96188.00
2023-07-15T00:35:40.833Z,96183.41
2023-07-15T00:38:07.447Z,96184.94
2023-07-15T00:40:34.050Z,96179.16
2023-07-15T00:43:02.612Z,96179.16
2023-07-15T00:45:29.396Z,96172.69
2023-07-15T00:47:56.059Z,96177.66
2023-07-15T00:50:22.760Z,96175.72
2023-07-15T00:52:49.409Z,96173.78
2023-07-15T00:55:16.014Z,96175.66
2023-07-15T00:57:42.665Z,96172.97
2023-07-15T01:00:09.282Z,96174.06
2023-07-15T01:02:35.941Z,96170.19
2023-07-15T01:05:02.581Z,96173.66
2023-07-15T01:07:29.194Z,96169.81
2023-07-15T01:09:55.825Z,96169.03
2023-07-15T01:12:22.454Z,96170.56
2023-07-15T01:14:49.052Z,96177.91
2023-07-15T01:17:15.703Z,96167.09
2023-07-15T01:19:42.364Z,96164.81
2023-07-15T01:22:08.990Z,96163.63
2023-07-15T01:24:35.616Z,96167.88
2023-07-15T01:27:02.239Z,96169.81
2023-07-15T01:29:28.827Z,96171.72
2023-07-15T01:31:55.449Z,96175.59
2023-07-15T01:34:22.119Z,96172.13
2023-07-15T01:36:48.737Z,96176.03
2023-07-15T01:39:15.379Z,96175.28
2023-07-15T01:41:41.981Z,96175.28
2023-07-15T01:44:08.597Z,96174.91
2023-07-15T01:46:35.325Z,96175.31
2023-07-15T01:49:02.064Z,96174.53
2023-07-15T01:51:28.700Z,96172.28
2023-07-15T01:53:55.310Z,96162.66
2023-07-15T01:56:21.930Z,96160.34
2023-07-15T01:58:48.550Z,96155.38
2023-07-15T02:01:15.214Z,96154.59
2023-07-15T02:03:41.898Z,96156.53
2023-07-15T02:06:08.562Z,96152.34
2023-07-15T02:08:35.236Z,96150.41
2023-07-15T02:11:01.838Z,96151.56
2023-07-15T02:13:28.459Z,96156.97
2023-07-15T02:15:55.098Z,96147.34
2023-07-15T02:18:21.701Z,96149.28
2023-07-15T02:20:48.335Z,96149.69
2023-07-15T02:23:14.931Z,96145.81
2023-07-15T02:25:41.556Z,96149.69
2023-07-15T02:28:08.162Z,96140.81
2023-07-15T02:30:34.837Z,96143.50
2023-07-15T02:33:01.585Z,96140.81
2023-07-15T02:35:28.229Z,96138.13
2023-07-15T02:37:54.842Z,96137.34
2023-07-15T02:40:21.452Z,96144.28
2023-07-15T02:42:48.073Z,96146.56
2023-07-15T02:45:14.673Z,96144.66
2023-07-15T02:47:41.357Z,96141.59
2023-07-15T02:50:08.000Z,96147.34
2023-07-15T02:52:34.625Z,96141.94
2023-07-15T02:55:01.250Z,96141.94
2023-07-15T02:57:27.861Z,96138.47
2023-07-15T02:59:54.456Z,96140.41
2023-07-15T03:02:21.095Z,96145.03
2023-07-15T03:04:47.829Z,96141.19
2023-07-15T03:07:14.499Z,96131.91
2023-07-15T03:09:41.113Z,96141.53
2023-07-15T03:12:07.805Z,96135.38
2023-07-15T03:14:34.427Z,96133.84
2023-07-15T03:17:01.183Z,96148.09
2023-07-15T03:19:27.881Z,96146.56
2023-07-15T03:21:54.502Z,96137.72
2023-07-15T03:24:21.103Z,96136.19
2023-07-15T03:26:47.723Z,96139.72
2023-07-15T03:29:14.347Z,96135.50
2023-07-15T03:31:41.064Z,96132.03
2023-07-15T03:34:07.742Z,96127.81
2023-07-15T03:36:34.370Z,96132.44
2023-07-15T03:39:00.967Z,96132.44
2023-07-15T03:41:27.574Z,96134.78
2023-07-15T03:43:54.192Z,96127.47
2023-07-15T03:46:20.852Z,96138.66
2023-07-15T03:48:47.499Z,96140.19
2023-07-15T03:51:14.129Z,96136.72
2023-07-15T03:53:40.732Z,96135.97
2023-07-15T03:56:07.346Z,96130.56
2023-07-15T03:58:33.961Z,96119.00
2023-07-15T04:01:00.572Z,96120.19
2023-07-15T04:03:27.465Z,96119.78
2023-07-15T04:05:54.092Z,96115.91
2023-07-15T04:08:20.744Z,96117.00
2023-07-15T04:10:47.412Z,96115.44
2023-07-15T04:13:14.016Z,96103.91
2023-07-15T04:15:40.657Z,96107.34
2023-07-15T04:18:07.369Z,96107.34
2023-07-15T04:20:34.076Z,96118.16
2023-07-15T04:23:00.803Z,96128.94
2023-07-15T04:25:27.483Z,96120.06
2023-07-15T04:27:54.092Z,96122.38
2023-07-15T04:30:20.710Z,96114.28
2023-07-15T04:32:47.369Z,96116.22
2023-07-15T04:35:14.000Z,96105.41
2023-07-15T04:37:40.636Z,96112.75
2023-07-15T04:40:07.256Z,96097.72
2023-07-15T04:42:33.917Z,96093.09
2023-07-15T04:45:00.528Z,96096.56
2023-07-15T04:47:27.169Z,96097.34
2023-07-15T04:49:53.796Z,96102.72
2023-07-15T04:52:20.431Z,96106.59
2023-07-15T04:54:47.030Z,96097.09
2023-07-15T04:57:13.631Z,96094.06
2023-07-15T04:59:40.229Z,96082.53
2023-07-15T05:02:06.846Z,96095.63
2023-07-15T05:04:33.465Z,96091.75
2023-07-15T05:07:00.069Z,96095.97
2023-07-15T05:09:26.728Z,96090.53
2023-07-15T05:11:53.370Z,96089.81
2023-07-15T05:14:19.998Z,96089.81
2023-07-15T05:16:46.625Z,96098.31
2023-07-15T05:19:13.236Z,96091.41
2023-07-15T05:21:39.873Z,96097.16
2023-07-15T05:24:06.464Z,96092.94
2023-07-15T05:26:33.075Z,96093.31
2023-07-15T05:28:59.684Z,96094.84
2023-07-15T05:31:26.340Z,96088.69
2023-07-15T05:33:53.055Z,96096.44
2023-07-15T05:36:19.692Z,96097.63
2023-07-15T05:38:46.323Z,96095.69
2023-07-15T05:41:15.987Z,96082.91
2023-07-15T05:43:42.828Z,96089.06
2023-07-15T05:46:09.438Z,96090.16
2023-07-15T05:48:36.050Z,96085.53
2023-07-15T05:51:02.673Z,96089.00
2023-07-15T05:53:29.270Z,96090.53
2023-07-15T05:55:56.983Z,96087.41
2023-07-15T05:58:23.700Z,96085.91
2023-07-15T06:00:50.333Z,96090.44
2023-07-15T06:03:17.000Z,96092.75
2023-07-15T06:05:43.729Z,96078.50
2023-07-15T06:08:10.350Z,96081.91
2023-07-15T06:10:36.962Z,96087.25
2023-07-15T06:13:03.579Z,96084.91
2023-07-15T06:15:30.190Z,96088.38
2023-07-15T06:17:56.892Z,96092.16
2023-07-15T06:20:23.559Z,96088.28
2023-07-15T06:22:50.232Z,96088.66
2023-07-15T06:25:16.857Z,96092.84
2023-07-15T06:27:43.457Z,96097.47
2023-07-15T06:30:10.090Z,96101.72
2023-07-15T06:32:36.781Z,96101.72
2023-07-15T06:35:03.404Z,96096.31
2023-07-15T06:37:30.023Z,96102.88
2023-07-15T06:39:56.690Z,96098.25
2023-07-15T06:42:23.307Z,96119.81
2023-07-15T06:44:49.958Z,96112.16
2023-07-15T06:47:16.658Z,96110.63
2023-07-15T06:49:43.292Z,96111.81
2023-07-15T06:52:09.929Z,96112.56
2023-07-15T06:54:36.541Z,96111.44
2023-07-15T06:57:03.140Z,96112.63
2023-07-15T06:59:29.767Z,96111.88
2023-07-15T07:01:56.363Z,96121.53
2023-07-15T07:04:23.012Z,96109.56
2023-07-15T07:06:49.638Z,96105.00
2023-07-15T07:09:16.257Z,96106.19
2023-07-15T07:11:42.879Z,96113.84
2023-07-15T07:14:09.488Z,96107.69
2023-07-15T07:16:36.114Z,96108.06
2023-07-15T07:19:02.804Z,96107.25
2023-07-15T07:21:29.424Z,96112.97
2023-07-15T07:23:56.027Z,96110.63
2023-07-15T07:26:22.647Z,96099.44
2023-07-15T07:28:49.249Z,96099.78
2023-07-15T07:31:16.097Z,96104.41
2023-07-15T07:33:43.143Z,96099.38
2023-07-15T07:36:09.941Z,96100.53
2023-07-15T07:38:36.680Z,96094.38
2023-07-15T07:41:03.323Z,96097.84
2023-07-15T07:43:29.949Z,96096.31
2023-07-15T07:45:56.585Z,96101.38
2023-07-15T07:48:23.207Z,96092.53
2023-07-15T07:50:49.808Z,96090.22
2023-07-15T07:53:16.427Z,96082.97
2023-07-15T07:55:45.227Z,96085.66
2023-07-15T07:58:13.350Z,96091.06
2023-07-15T08:00:39.954Z,96088.78
2023-07-15T08:03:06.678Z,96087.66
2023-07-15T08:05:33.443Z,96085.78
2023-07-15T08:08:00.062Z,96098.13
2023-07-15T08:10:26.696Z,96096.59
2023-07-15T08:12:53.317Z,96102.44
2023-07-15T08:15:19.923Z,96103.59
2023-07-15T08:17:46.573Z,96102.06
2023-07-15T08:20:13.257Z,96100.50
2023-07-15T08:22:39.917Z,96095.09
2023-07-15T08:25:06.537Z,96095.09
2023-07-15T08:27:33.126Z,96099.38
2023-07-15T08:29:59.744Z,96093.56
2023-07-15T08:32:26.452Z,96085.13
2023-07-15T08:34:53.127Z,96085.50
2023-07-15T08:37:19.790Z,96070.84
2023-07-15T08:39:46.397Z,96069.72
2023-07-15T08:42:13.011Z,96063.56
2023-07-15T08:44:39.615Z,96070.00
2023-07-15T08:47:06.224Z,96071.81
2023-07-15T08:49:32.858Z,96057.84
2023-07-15T08:51:59.480Z,96057.44
2023-07-15T08:54:26.095Z,96050.47
2023-07-15T08:56:52.728Z,96048.13
2023-07-15T08:59:19.356Z,96042.31
2023-07-15T09:01:46.040Z,96046.19
2023-07-15T09:04:12.769Z,96046.94
2023-07-15T09:06:39.436Z,96049.97
2023-07-15T09:09:06.037Z,96045.81
2023-07-15T09:11:32.640Z,96047.44
2023-07-15T09:13:59.272Z,96045.06
2023-07-15T09:16:25.919Z,96038.13
2023-07-15T09:18:52.581Z,96035.03
2023-07-15T09:21:19.430Z,96038.50
2023-07-15T09:23:46.449Z,96031.56
2023-07-15T09:26:13.120Z,96030.03
2023-07-15T09:28:39.717Z,96033.09
2023-07-15T09:31:06.404Z,96025.38
2023-07-15T09:33:33.026Z,96025.38
2023-07-15T09:35:59.636Z,96030.75
2023-07-15T09:38:26.242Z,96035.03
2023-07-15T09:40:52.851Z,96032.00
2023-07-15T09:43:19.482Z,96031.56
2023-07-15T09:45:46.137Z,96031.56
2023-07-15T09:48:12.859Z,96022.31
2023-07-15T09:50:39.568Z,96018.16
2023-07-15T09:53:06.186Z,96025.09
2023-07-15T09:55:32.843Z,96026.19
2023-07-15T09:57:59.453Z,96025.00
2023-07-15T10:00:26.054Z,96026.19
2023-07-15T10:02:52.764Z,96032.22
2023-07-15T10:05:19.417Z,96026.91
2023-07-15T10:07:46.041Z,96030.34
2023-07-15T10:10:12.669Z,96027.94
2023-07-15T10:12:39.296Z,96024.75
2023-07-15T10:15:05.966Z,96013.78
2023-07-15T10:17:32.613Z,96013.38
2023-07-15T10:19:59.236Z,96009.47
2023-07-15T10:22:25.852Z,96008.94
2023-07-15T10:24:52.490Z,96008.44
2023-07-15T10:27:19.118Z,95999.50
2023-07-15T10:29:49.760Z,95995.31
2023-07-15T10:32:20.892Z,96000.22
2023-07-15T10:34:47.689Z,95992.88
2023-07-15T10:37:14.304Z,95980.16
2023-07-15T10:39:40.908Z,95973.91
2023-07-15T10:42:07.536Z,95976.50
2023-07-15T10:44:34.166Z,95975.28
2023-07-15T10:47:00.819Z,95981.34
2023-07-15T10:49:27.501Z,95980.19
2023-07-15T10:51:54.139Z,95991.75
2023-07-15T10:54:20.787Z,95982.13
2023-07-15T10:56:47.413Z,95982.38
2023-07-15T10:59:14.013Z,95964.19
2023-07-15T11:01:40.638Z,95966.47
2023-07-15T11:04:07.243Z,95967.59
2023-07-15T11:06:33.918Z,95960.47
2023-07-15T11:09:00.545Z,95961.19
2023-07-15T11:11:27.174Z,95953.31
2023-07-15T11:13:53.783Z,95951.38
2023-07-15T11:16:20.448Z,95953.22
2023-07-15T11:18:47.081Z,95949.34
2023-07-15T11:21:13.692Z,95951.66
2023-07-15T11:23:40.378Z,95947.25
2023-07-15T11:26:06.995Z,95947.66
2023-07-15T11:28:33.603Z,95945.72
2023-07-15T11:31:00.249Z,95952.22
2023-07-15T11:33:26.949Z,95949.88
2023-07-15T11:35:53.548Z,95960.31
2023-07-15T11:38:20.164Z,95970.81
2023-07-15T11:40:46.770Z,95978.56
2023-07-15T11:43:13.383Z,95990.56
2023-07-15T11:45:39.996Z,95993.25
2023-07-15T11:48:06.639Z,96011.41
2023-07-15T11:50:33.314Z,96024.91
2023-07-15T11:52:59.929Z,96027.28
2023-07-15T11:55:26.580Z,96041.63
2023-07-15T11:57:53.211Z,96025.16
2023-07-15T12:00:23.265Z,95998.56
2023-07-15T12:02:58.425Z,95983.88
2023-07-15T12:05:25.131Z,95965.41
2023-07-15T12:07:51.740Z,95973.41
2023-07-15T12:10:18.362Z,95994.53
2023-07-15T12:12:45.140Z,95994.88
2023-07-15T12:15:11.807Z,95981.78
2023-07-15T12:17:38.435Z,95970.13
2023-07-15T12:20:05.065Z,95975.69
2023-07-15T12:22:31.747Z,95974.69
2023-07-15T12:24:58.459Z,95969.19
2023-07-15T12:27:25.272Z,95975.25
2023-07-15T12:29:51.881Z,95966.31
2023-07-15T12:32:18.469Z,95962.09
2023-07-15T12:34:45.065Z,95954.75
2023-07-15T12:37:11.672Z,95957.81
2023-07-15T12:39:38.309Z,95951.56
2023-07-15T12:42:04.934Z,95944.88
2023-07-15T12:44:31.556Z,95950.53
2023-07-15T12:46:58.235Z,95953.47
2023-07-15T12:49:24.931Z,95945.31
2023-07-15T12:51:51.535Z,95946.38
2023-07-15T12:54:18.156Z,95942.50
2023-07-15T12:56:44.762Z,95940.97
2023-07-15T12:59:11.383Z,95949.44
2023-07-15T13:01:38.052Z,95938.63
2023-07-15T13:04:04.736Z,95928.94
2023-07-15T13:06:31.362Z,95923.09
2023-07-15T13:08:57.980Z,95937.38
2023-07-15T13:11:24.592Z,95930.94
2023-07-15T13:13:51.214Z,95926.25
2023-07-15T13:16:18.077Z,95930.88
2023-07-15T13:18:45.156Z,95911.19
2023-07-15T13:21:11.846Z,95902.66
2023-07-15T13:23:38.553Z,95909.06
2023-07-15T13:26:05.162Z,95907.47
2023-07-15T13:28:31.784Z,95901.66
2023-07-15T13:30:58.416Z,95903.59
2023-07-15T13:33:25.008Z,95900.00
2023-07-15T13:35:51.611Z,95890.84
2023-07-15T13:38:18.222Z,95890.06
2023-07-15T13:40:44.819Z,95876.97
2023-07-15T13:43:11.443Z,95886.72
2023-07-15T13:45:38.087Z,95889.81
2023-07-15T13:48:04.764Z,95888.66
2023-07-15T13:50:31.447Z,95884.84
2023-07-15T13:52:58.089Z,95882.91
2023-07-15T13:55:24.715Z,95885.25
2023-07-15T13:57:51.370Z,95884.94
2023-07-15T14:00:17.982Z,95876.63
2023-07-15T14:02:44.772Z,95874.31
2023-07-15T14:05:11.807Z,95877.78
2023-07-15T14:07:38.484Z,95877.97
2023-07-15T14:10:05.105Z,95879.16
2023-07-15T14:12:31.703Z,95868.69
2023-07-15T14:14:58.304Z,95865.97
2023-07-15T14:17:24.929Z,95862.75
2023-07-15T14:19:54.265Z,95860.69
2023-07-15T14:22:34.170Z,95865.28
2023-07-15T14:25:09.241Z,95860.94
2023-07-15T14:27:35.852Z,95847.34
2023-07-15T14:30:02.483Z,95850.69
2023-07-15T14:32:29.147Z,95834.47
2023-07-15T14:34:55.789Z,95843.53
2023-07-15T14:37:22.437Z,95852.50
2023-07-15T14:39:49.118Z,95835.84
2023-07-15T14:42:15.736Z,95833.13
2023-07-15T14:44:42.334Z,95832.28
2023-07-15T14:47:08.997Z,95826.13
2023-07-15T14:49:35.730Z,95830.56
2023-07-15T14:52:02.371Z,95824.91
2023-07-15T14:54:29.041Z,95808.25
2023-07-15T14:56:55.657Z,95811.94
2023-07-15T14:59:22.278Z,95805.97
2023-07-15T15:01:48.977Z,95810.09
2023-07-15T15:04:15.611Z,95806.53
2023-07-15T15:06:43.618Z,95802.97
2023-07-15T15:09:12.007Z,95789.00
2023-07-15T15:11:38.619Z,95783.16
2023-07-15T15:14:05.212Z,95792.78
2023-07-15T15:16:31.868Z,95788.44
2023-07-15T15:18:58.906Z,95788.44
2023-07-15T15:21:25.601Z,95784.13
2023-07-15T15:23:52.217Z,95780.22
2023-07-15T15:26:18.815Z,95775.09
2023-07-15T15:28:45.480Z,95781.72
2023-07-15T15:31:12.116Z,95773.59
2023-07-15T15:33:38.814Z,95768.94
2023-07-15T15:36:05.449Z,95775.09
2023-07-15T15:38:32.073Z,95768.63
2023-07-15T15:40:58.713Z,95763.66
2023-07-15T15:43:25.318Z,95758.78
2023-07-15T15:45:52.349Z,95761.28
2023-07-15T15:48:18.943Z,95765.06
2023-07-15T15:50:45.565Z,95753.94
2023-07-15T15:53:12.168Z,95756.63
2023-07-15T15:55:38.778Z,95771.97
2023-07-15T15:58:05.390Z,95781.81
2023-07-15T16:00:32.009Z,95782.50
2023-07-15T16:02:58.789Z,95771.88
2023-07-15T16:05:25.492Z,95765.91
2023-07-15T16:07:52.085Z,95766.78
2023-07-15T16:10:18.693Z,95764.09
2023-07-15T16:12:45.316Z,95762.47
2023-07-15T16:15:11.963Z,95747.22
2023-07-15T16:17:38.618Z,95751.94
2023-07-15T16:20:05.283Z,95746.69
2023-07-15T16:22:31.968Z,95743.28
2023-07-15T16:24:58.613Z,95737.44
2023-07-15T16:27:25.229Z,95742.06
2023-07-15T16:29:51.844Z,95737.59
2023-07-15T16:32:18.471Z,95735.03
2023-07-15T16:34:45.112Z,95727.84
2023-07-15T16:37:11.741Z,95730.41
2023-07-15T16:39:38.345Z,95728.75
2023-07-15T16:42:04.965Z,95731.09
2023-07-15T16:44:31.566Z,95740.53
2023-07-15T16:46:58.179Z,95746.88
2023-07-15T16:49:24.764Z,95750.81
2023-07-15T16:51:51.372Z,95765.28
2023-07-15T16:54:17.988Z,95773.13
2023-07-15T16:56:44.633Z,95782.06
2023-07-15T16:59:11.227Z,95775.13
2023-07-15T17:01:38.005Z,95793.47
2023-07-15T17:04:04.662Z,95792.84
2023-07-15T17:06:31.329Z,95789.94
2023-07-15T17:08:57.950Z,95796.75
2023-07-15T17:11:24.582Z,95801.09
2023-07-15T17:13:51.204Z,95796.56
2023-07-15T17:16:17.831Z,95805.53
2023-07-15T17:18:44.508Z,95809.53
2023-07-15T17:21:11.195Z,95807.06
2023-07-15T17:23:37.831Z,95804.13
2023-07-15T17:26:04.457Z,95798.50
2023-07-15T17:28:31.088Z,95805.88
2023-07-15T17:30:57.695Z,95811.75
2023-07-15T17:33:24.307Z,95806.34
2023-07-15T17:35:50.908Z,95806.75
2023-07-15T17:38:17.516Z,95812.59
2023-07-15T17:40:44.129Z,95808.84
2023-07-15T17:43:10.748Z,95806.13
2023-07-15T17:45:37.490Z,95808.06
2023-07-15T17:48:04.141Z,95819.41
2023-07-15T17:50:30.776Z,95820.59
2023-07-15T17:52:57.386Z,95823.41
2023-07-15T17:55:25.638Z,95823.84
2023-07-15T17:57:52.662Z,95831.97
2023-07-15T18:00:19.281Z,95840.53
2023-07-15T18:02:45.929Z,95844.00
2023-07-15T18:05:12.585Z,95844.31
2023-07-15T18:07:39.212Z,95855.56
2023-07-15T18:10:05.816Z,95843.56
2023-07-15T18:12:32.425Z,95849.72
2023-07-15T18:14:59.077Z,95856.81
2023-07-15T18:17:25.750Z,95871.06
2023-07-15T18:19:52.402Z,95867.84
2023-07-15T18:22:19.015Z,95872.28
2023-07-15T18:24:45.656Z,95881.69
2023-07-15T18:27:12.255Z,95897.25
2023-07-15T18:29:38.932Z,95905.06
2023-07-15T18:32:05.593Z,95903.13
2023-07-15T18:34:32.211Z,95903.22
2023-07-15T18:36:58.819Z,95915.56
2023-07-15T18:39:25.437Z,95931.38
2023-07-15T18:41:52.044Z,95924.84
2023-07-15T18:44:18.675Z,95932.56
2023-07-15T18:46:45.438Z,95934.50
2023-07-15T18:49:12.101Z,95946.84
2023-07-15T18:51:38.723Z,95948.03
2023-07-15T18:54:05.346Z,95961.22
2023-07-15T18:56:31.973Z,95965.56
2023-07-15T18:58:58.619Z,95979.53
2023-07-15T19:01:25.328Z,95992.31
2023-07-15T19:03:52.004Z,96005.06
2023-07-15T19:06:18.628Z,96005.84
2023-07-15T19:08:45.274Z,95990.78
2023-07-15T19:11:11.936Z,95977.69
2023-07-15T19:13:38.567Z,95999.34
2023-07-15T19:16:05.200Z,96004.75
2023-07-15T19:18:31.821Z,96011.66
2023-07-15T19:20:58.434Z,96028.66
2023-07-15T19:23:25.759Z,96019.03
2023-07-15T19:25:52.466Z,96037.97
2023-07-15T19:28:19.076Z,96049.91
2023-07-15T19:30:45.849Z,96032.25
2023-07-15T19:33:12.594Z,96028.44
2023-07-15T19:35:39.278Z,96041.56
2023-07-15T19:38:05.914Z,96050.84
2023-07-15T19:40:32.572Z,96067.50
2023-07-15T19:42:59.277Z,96061.69
2023-07-15T19:45:27.711Z,96062.03
2023-07-15T19:47:54.877Z,96059.72
2023-07-15T19:50:21.563Z,96069.38
2023-07-15T19:52:48.204Z,96068.63
2023-07-15T19:55:14.865Z,96073.38
2023-07-15T19:57:41.487Z,96076.84
2023-07-15T20:00:08.109Z,96066.75
2023-07-15T20:02:34.797Z,96085.38
2023-07-15T20:05:01.440Z,96076.16
2023-07-15T20:07:28.054Z,96088.16
2023-07-15T20:09:54.666Z,96089.38
2023-07-15T20:12:21.277Z,96101.25
2023-07-15T20:14:47.891Z,96095.09
2023-07-15T20:17:14.593Z,96109.81
2023-07-15T20:19:41.246Z,96117.50
2023-07-15T20:22:07.853Z,96119.44
2023-07-15T20:24:34.483Z,96124.84
2023-07-15T20:27:01.140Z,96122.91
2023-07-15T20:29:27.805Z,96134.91
2023-07-15T20:31:54.484Z,96129.97
2023-07-15T20:34:21.126Z,96141.97
2023-07-15T20:36:47.749Z,96145.19
2023-07-15T20:39:14.349Z,96144.47
2023-07-15T20:41:41.037Z,96147.38
2023-07-15T20:44:07.687Z,96155.06
2023-07-15T20:46:34.303Z,96165.97
2023-07-15T20:49:00.956Z,96178.72
2023-07-15T20:51:27.681Z,96184.91
2023-07-15T20:53:54.281Z,96191.16
2023-07-15T20:56:20.899Z,96203.91
2023-07-15T20:58:47.503Z,96209.38
2023-07-15T21:01:14.155Z,96217.91
2023-07-15T21:03:40.819Z,96222.59
2023-07-15T21:06:07.491Z,96236.94
2023-07-15T21:08:34.135Z,96238.13
2023-07-15T21:11:00.757Z,96236.69
2023-07-15T21:13:27.392Z,96240.63
2023-07-15T21:15:54.027Z,96247.63
2023-07-15T21:18:20.658Z,96270.53
2023-07-15T21:20:47.287Z,96267.16
2023-07-15T21:23:13.916Z,96262.66
2023-07-15T21:25:40.535Z,96271.25
2023-07-15T21:28:07.164Z,96277.56
2023-07-15T21:30:33.769Z,96287.59
2023-07-15T21:33:00.416Z,96296.13
2023-07-15T21:35:27.040Z,96295.41
2023-07-15T21:37:53.656Z,96289.22
2023-07-15T21:40:20.314Z,96276.13
2023-07-15T21:42:46.997Z,96280.44
2023-07-15T21:45:13.613Z,96294.44
2023-07-15T21:47:40.295Z,96302.81
2023-07-15T21:50:06.930Z,96318.56
2023-07-15T21:52:33.543Z,96318.91
2023-07-15T21:55:00.183Z,96340.13
2023-07-15T21:57:26.806Z,96340.53
2023-07-15T21:59:53.412Z,96341.75
2023-07-15T22:02:20.052Z,96363.69
2023-07-15T22:04:46.729Z,96362.53
2023-07-15T22:07:13.334Z,96373.69
2023-07-15T22:09:39.937Z,96387.97
2023-07-15T22:12:06.559Z,96392.63
2023-07-15T22:14:33.156Z,96385.59
2023-07-15T22:16:59.789Z,96396.78
2023-07-15T22:19:26.392Z,96394.06
2023-07-15T22:21:52.997Z,96397.94
2023-07-15T22:24:19.627Z,96415.72
2023-07-15T22:26:46.231Z,96406.44
2023-07-15T22:29:12.826Z,96417.66
2023-07-15T22:31:39.717Z,96418.81
2023-07-15T22:34:06.509Z,96421.53
2023-07-15T22:36:33.122Z,96445.53
2023-07-15T22:38:59.765Z,96440.91
2023-07-15T22:41:26.383Z,96459.47
2023-07-15T22:43:52.992Z,96460.69
2023-07-15T22:46:19.852Z,96468.41
2023-07-15T22:48:46.610Z,96479.63
2023-07-15T22:51:13.510Z,96466.09
2023-07-15T22:53:40.111Z,96471.16
2023-07-15T22:56:06.735Z,96476.22
2023-07-15T22:58:33.386Z,96484.72
2023-07-15T23:01:00.049Z,96495.91
2023-07-15T23:03:26.825Z,96505.53
2023-07-15T23:05:53.694Z,96507.53
2023-07-15T23:08:20.308Z,96520.34
2023-07-15T23:10:46.935Z,96503.00
2023-07-15T23:13:13.555Z,96494.53
2023-07-15T23:15:40.161Z,96508.44
2023-07-15T23:18:06.886Z,96515.03
2023-07-15T23:20:33.659Z,96518.50
2023-07-15T23:23:15.580Z,96522.38
2023-07-15T23:25:44.173Z,96515.84
2023-07-15T23:28:10.811Z,96515.09
2023-07-15T23:30:37.426Z,96503.50
2023-07-15T23:33:04.089Z,96513.56
2023-07-15T23:35:30.716Z,96520.09
2023-07-15T23:37:57.612Z,96519.66
2023-07-15T23:40:24.203Z,96522.72
2023-07-15T23:42:50.817Z,96517.31
2023-07-15T23:45:17.428Z,96505.75
2023-07-15T23:47:44.083Z,96515.38
2023-07-15T23:50:10.738Z,96515.00
2023-07-15T23:52:37.367Z,96524.25
2023-07-15T23:55:03.966Z,96525.03
2023-07-15T23:57:30.576Z,96533.91
2023-07-15T23:59:57.185Z,96543.19
